Time;durP1;ratioP1;P1;durP2;ratioP2;P2;SDS_P1;SDS_P2;PMS_P1;PMS_P2;Temp;Humidity;BMP_temperature;BMP_pressure;BME280_temperature;BME280_humidity;BME280_pressure;Samples;Min_cycle;Max_cycle;Signal;HPM_P1;HPM_P2
2023/07/09 00:00:23;;;;;;;3.55;3.25;;;;;;;;;;5078027;28;20371;-23
2023/07/09 00:02:50;;;;;;;2.88;2.67;;;;;;;;;;5077699;28;20017;-22
2023/07/09 00:05:17;;;;;;;2.75;2.55;;;;;;;;;;5077772;28;20103;-21
2023/07/09 00:07:44;;;;;;;3.08;2.88;;;;;;;;;;5077578;28;20021;-27
2023/07/09 00:10:18;;;;;;;2.72;2.63;;;;;;;;;;5077923;28;20029;-18
2023/07/09 00:12:45;;;;;;;3.47;3.05;;;;;;;;;;5077817;28;20020;-25
2023/07/09 00:15:12;;;;;;;2.97;2.80;;;;;;;;;;5078093;28;20100;-21
2023/07/09 00:17:39;;;;;;;3.00;2.80;;;;;;;;;;5077749;28;20397;-21
2023/07/09 00:20:13;;;;;;;3.05;2.85;;;;;;;;;;5077355;28;20036;-20
2023/07/09 00:22:47;;;;;;;2.28;2.17;;;;;;;;;;5077261;28;20459;-20
2023/07/09 00:25:16;;;;;;;2.55;2.45;;;;;;;;;;5077339;28;20028;-22
2023/07/09 00:27:46;;;;;;;2.53;2.42;;;;;;;;;;5077335;28;20051;-18
2023/07/09 00:30:19;;;;;;;3.20;3.00;;;;;;;;;;5077253;28;20082;-20
2023/07/09 00:32:45;;;;;;;2.00;1.80;;;;;;;;;;5077166;28;20367;-18
2023/07/09 00:35:15;;;;;;;2.70;2.50;;;;;;;;;;5077186;28;20031;-19
2023/07/09 00:37:42;;;;;;;2.30;2.20;;;;;;;;;;5077438;28;20048;-20
2023/07/09 00:40:20;;;;;;;2.55;2.45;;;;;;;;;;5077160;28;20028;-23
2023/07/09 00:42:50;;;;;;;3.03;2.83;;;;;;;;;;5076951;28;20467;-20
2023/07/09 00:45:24;;;;;;;2.67;2.47;;;;;;;;;;5077362;28;20031;-19
2023/07/09 00:47:53;;;;;;;2.80;2.60;;;;;;;;;;5077270;28;20040;-20
2023/07/09 00:50:27;;;;;;;2.28;2.15;;;;;;;;;;5058498;28;20032;-21
2023/07/09 00:52:59;;;;;;;3.00;2.80;;;;;;;;;;5059202;28;20036;-22
2023/07/09 00:55:27;;;;;;;2.95;2.75;;;;;;;;;;5077108;28;20028;-20
2023/07/09 00:57:59;;;;;;;2.30;2.20;;;;;;;;;;5076728;28;20028;-19
2023/07/09 01:00:31;;;;;;;2.40;2.30;;;;;;;;;;5077257;28;20039;-17
2023/07/09 01:02:58;;;;;;;2.33;2.22;;;;;;;;;;5076887;28;20101;-18
2023/07/09 01:05:25;;;;;;;3.03;2.70;;;;;;;;;;5076662;28;20394;-19
2023/07/09 01:07:53;;;;;;;2.67;2.58;;;;;;;;;;5076610;28;20030;-19
2023/07/09 01:10:20;;;;;;;2.70;2.50;;;;;;;;;;5076531;28;20482;-21
2023/07/09 01:12:47;;;;;;;2.78;2.65;;;;;;;;;;5076456;28;20336;-23
2023/07/09 01:15:15;;;;;;;2.83;2.63;;;;;;;;;;5076490;28;20373;-18
2023/07/09 01:17:44;;;;;;;2.30;2.20;;;;;;;;;;5076350;28;20474;-21
2023/07/09 01:20:16;;;;;;;2.88;2.67;;;;;;;;;;5076270;28;20037;-19
2023/07/09 01:22:42;;;;;;;2.50;2.40;;;;;;;;;;5076581;28;20012;-24
2023/07/09 01:25:09;;;;;;;2.00;1.90;;;;;;;;;;5076556;28;20363;-22
2023/07/09 01:27:43;;;;;;;3.22;3.03;;;;;;;;;;5076142;28;20025;-20
2023/07/09 01:30:22;;;;;;;2.50;2.30;;;;;;;;;;5076175;28;20032;-21
2023/07/09 01:32:49;;;;;;;2.65;2.55;;;;;;;;;;5075996;28;20074;-20
2023/07/09 01:35:17;;;;;;;3.03;2.83;;;;;;;;;;5076336;28;20029;-20
2023/07/09 01:37:43;;;;;;;3.28;3.05;;;;;;;;;;5076044;28;20070;-23
2023/07/09 01:40:11;;;;;;;3.28;3.08;;;;;;;;;;5075934;28;20048;-23
2023/07/09 01:42:38;;;;;;;2.92;2.72;;;;;;;;;;5076007;28;20058;-17
2023/07/09 01:45:05;;;;;;;3.55;3.35;;;;;;;;;;5075754;28;20040;-20
2023/07/09 01:47:31;;;;;;;3.60;3.40;;;;;;;;;;5076013;28;20106;-20
2023/07/09 01:49:57;;;;;;;2.97;2.78;;;;;;;;;;5075669;28;20028;-19
2023/07/09 01:52:27;;;;;;;3.15;2.95;;;;;;;;;;5075898;28;20343;-19
2023/07/09 01:54:53;;;;;;;3.95;3.65;;;;;;;;;;5075564;28;20036;-22
2023/07/09 01:57:23;;;;;;;3.50;3.30;;;;;;;;;;5075507;28;20025;-19
2023/07/09 01:59:54;;;;;;;2.80;2.60;;;;;;;;;;5075475;28;20027;-21
2023/07/09 02:02:20;;;;;;;;;;;;;;;;;;5074726;28;20058;-20
2023/07/09 02:04:47;;;;;;;3.85;3.55;;;;;;;;;;5075240;28;20002;-21
2023/07/09 02:07:14;;;;;;;3.88;3.58;;;;;;;;;;5075737;28;20028;-22
2023/07/09 02:09:40;;;;;;;3.30;3.10;;;;;;;;;;5075326;28;20024;-21
2023/07/09 02:12:06;;;;;;;3.55;3.30;;;;;;;;;;5076071;28;20431;-19
2023/07/09 02:14:32;;;;;;;2.72;2.63;;;;;;;;;;5075282;28;20384;-20
2023/07/09 02:16:59;;;;;;;3.35;3.15;;;;;;;;;;5075207;28;20020;-18
2023/07/09 02:19:25;;;;;;;2.70;2.50;;;;;;;;;;5075308;28;20040;-19
2023/07/09 02:21:51;;;;;;;2.83;2.63;;;;;;;;;;5075306;28;20054;-20
2023/07/09 02:24:17;;;;;;;2.50;2.40;;;;;;;;;;5075116;28;20103;-20
2023/07/09 02:26:44;;;;;;;2.45;2.25;;;;;;;;;;5075006;28;20100;-26
2023/07/09 02:29:11;;;;;;;2.72;2.53;;;;;;;;;;5075286;28;20055;-17
2023/07/09 02:31:37;;;;;;;3.17;2.97;;;;;;;;;;5075496;28;20036;-20
2023/07/09 02:34:03;;;;;;;2.72;2.58;;;;;;;;;;5074856;28;20490;-19
2023/07/09 02:36:29;;;;;;;3.30;3.10;;;;;;;;;;5057312;28;20039;-20
2023/07/09 02:38:55;;;;;;;3.22;2.97;;;;;;;;;;5075119;28;20333;-19
2023/07/09 02:41:21;;;;;;;3.15;2.95;;;;;;;;;;5075022;28;20028;-18
2023/07/09 02:43:48;;;;;;;2.97;2.78;;;;;;;;;;5074775;28;20017;-20
2023/07/09 02:46:14;;;;;;;2.30;2.20;;;;;;;;;;5074793;28;20382;-21
2023/07/09 02:48:40;;;;;;;2.70;2.50;;;;;;;;;;5074745;28;20078;-20
2023/07/09 02:51:06;;;;;;;3.00;2.80;;;;;;;;;;5074720;28;20024;-21
2023/07/09 02:53:32;;;;;;;3.53;3.33;;;;;;;;;;5074655;28;20040;-19
2023/07/09 02:55:58;;;;;;;3.15;2.95;;;;;;;;;;5074580;28;20115;-20
2023/07/09 02:58:24;;;;;;;2.47;2.35;;;;;;;;;;5074941;28;20031;-22
2023/07/09 03:00:53;;;;;;;3.72;3.53;;;;;;;;;;5074864;28;20039;-20
2023/07/09 03:03:20;;;;;;;2.60;2.40;;;;;;;;;;5074781;28;20029;-20
2023/07/09 03:05:49;;;;;;;3.50;3.20;;;;;;;;;;5074331;28;20041;-19
2023/07/09 03:08:15;;;;;;;2.67;2.58;;;;;;;;;;5075074;28;20485;-22
2023/07/09 03:10:41;;;;;;;3.28;3.08;;;;;;;;;;5074555;28;20024;-23
2023/07/09 03:13:07;;;;;;;2.78;2.58;;;;;;;;;;5073966;28;20035;-19
2023/07/09 03:15:33;;;;;;;2.92;2.72;;;;;;;;;;5056708;28;20035;-19
2023/07/09 03:18:00;;;;;;;2.53;2.42;;;;;;;;;;5056823;28;20443;-19
2023/07/09 03:20:26;;;;;;;2.60;2.50;;;;;;;;;;5074611;28;20114;-22
2023/07/09 03:22:52;;;;;;;2.58;2.47;;;;;;;;;;5074370;28;20055;-22
2023/07/09 03:25:18;;;;;;;2.33;2.22;;;;;;;;;;5056809;28;20384;-21
2023/07/09 03:27:44;;;;;;;2.20;2.10;;;;;;;;;;5074615;28;20085;-19
2023/07/09 03:30:10;;;;;;;2.05;1.95;;;;;;;;;;5056737;28;20032;-22
2023/07/09 03:32:36;;;;;;;2.60;2.50;;;;;;;;;;5074523;28;20052;-20
2023/07/09 03:35:02;;;;;;;2.53;2.33;;;;;;;;;;5074258;28;20028;-18
2023/07/09 03:37:28;;;;;;;2.85;2.65;;;;;;;;;;5074280;28;20024;-20
2023/07/09 03:39:55;;;;;;;2.58;2.40;;;;;;;;;;5057027;28;20341;-21
2023/07/09 03:42:21;;;;;;;2.97;2.78;;;;;;;;;;5074791;28;20032;-21
2023/07/09 03:44:47;;;;;;;2.47;2.38;;;;;;;;;;5074404;28;20067;-21
2023/07/09 03:47:13;;;;;;;2.60;2.40;;;;;;;;;;5074459;28;20348;-19
2023/07/09 03:49:41;;;;;;;2.50;2.40;;;;;;;;;;5056533;28;20432;-19
2023/07/09 03:52:08;;;;;;;2.13;2.03;;;;;;;;;;5074318;28;20028;-24
2023/07/09 03:54:34;;;;;;;2.80;2.60;;;;;;;;;;5074380;28;20029;-21
2023/07/09 03:57:00;;;;;;;3.20;3.00;;;;;;;;;;5074380;28;20390;-19
2023/07/09 03:59:26;;;;;;;2.50;2.40;;;;;;;;;;5056318;28;20120;-17
2023/07/09 04:01:53;;;;;;;3.17;2.97;;;;;;;;;;5074263;28;20054;-20
2023/07/09 04:04:20;;;;;;;2.58;2.47;;;;;;;;;;5074253;28;20096;-22
2023/07/09 04:06:46;;;;;;;3.10;2.90;;;;;;;;;;5071678;28;20372;-20
2023/07/09 04:09:13;;;;;;;2.20;2.00;;;;;;;;;;5073992;28;20083;-20
2023/07/09 04:11:39;;;;;;;3.10;2.90;;;;;;;;;;5073938;28;20021;-19
2023/07/09 04:14:07;;;;;;;2.78;2.58;;;;;;;;;;5073858;28;20115;-20
2023/07/09 04:16:33;;;;;;;2.03;1.92;;;;;;;;;;5073835;28;20028;-19
2023/07/09 04:18:59;;;;;;;2.28;2.17;;;;;;;;;;5073849;28;20032;-21
2023/07/09 04:21:25;;;;;;;1.88;1.77;;;;;;;;;;5073784;28;20044;-27
2023/07/09 04:23:51;;;;;;;1.85;1.75;;;;;;;;;;5074058;28;20117;-21
2023/07/09 04:26:17;;;;;;;2.55;2.45;;;;;;;;;;5075849;28;20351;-20
2023/07/09 04:28:43;;;;;;;2.50;2.40;;;;;;;;;;5077543;28;20021;-21
2023/07/09 04:31:10;;;;;;;2.58;2.45;;;;;;;;;;5077342;28;20036;-20
2023/07/09 04:33:36;;;;;;;2.70;2.55;;;;;;;;;;5077413;28;20054;-18
2023/07/09 04:36:02;;;;;;;3.63;2.28;;;;;;;;;;5077732;28;20033;-18
2023/07/09 04:38:28;;;;;;;3.00;2.80;;;;;;;;;;5059509;28;20030;-19
2023/07/09 04:40:54;;;;;;;3.00;2.80;;;;;;;;;;5077329;28;20355;-19
2023/07/09 04:43:21;;;;;;;2.13;1.95;;;;;;;;;;5077326;28;20036;-20
2023/07/09 04:45:48;;;;;;;2.30;2.20;;;;;;;;;;5077277;28;20405;-20
2023/07/09 04:48:14;;;;;;;2.60;2.40;;;;;;;;;;5076950;28;20039;-19
2023/07/09 04:50:40;;;;;;;2.63;2.53;;;;;;;;;;5076972;28;20032;-25
2023/07/09 04:53:06;;;;;;;2.80;2.60;;;;;;;;;;5077403;28;20036;-23
2023/07/09 04:55:33;;;;;;;3.10;2.90;;;;;;;;;;5077168;28;20463;-21
2023/07/09 04:57:59;;;;;;;2.15;2.05;;;;;;;;;;5077097;28;20032;-25
2023/07/09 05:00:25;;;;;;;2.58;2.38;;;;;;;;;;5076968;28;20359;-19
2023/07/09 05:02:51;;;;;;;2.45;2.35;;;;;;;;;;5076881;28;20020;-20
2023/07/09 05:05:17;;;;;;;3.08;2.88;;;;;;;;;;5076492;28;20052;-17
2023/07/09 05:07:43;;;;;;;2.33;2.15;;;;;;;;;;5076938;28;20442;-19
2023/07/09 05:10:10;;;;;;;2.65;2.45;;;;;;;;;;5076626;28;20036;-20
2023/07/09 05:12:36;;;;;;;2.72;2.58;;;;;;;;;;5076698;28;20016;-21
2023/07/09 05:15:02;;;;;;;2.20;2.10;;;;;;;;;;5076723;28;20025;-19
2023/07/09 05:17:28;;;;;;;2.28;2.17;;;;;;;;;;5076430;28;20060;-19
2023/07/09 05:19:54;;;;;;;2.40;2.30;;;;;;;;;;5076626;28;20046;-19
2023/07/09 05:22:20;;;;;;;2.10;2.00;;;;;;;;;;5076285;28;20031;-20
2023/07/09 05:24:46;;;;;;;1.92;1.83;;;;;;;;;;5076572;28;20103;-21
2023/07/09 05:27:12;;;;;;;2.00;1.90;;;;;;;;;;5076278;28;20021;-18
2023/07/09 05:29:39;;;;;;;2.05;1.95;;;;;;;;;;5076172;28;20024;-19
2023/07/09 05:32:05;;;;;;;1.83;1.73;;;;;;;;;;5076088;28;20021;-20
2023/07/09 05:34:31;;;;;;;1.80;1.70;;;;;;;;;;5076385;28;20039;-21
2023/07/09 05:36:57;;;;;;;2.30;2.20;;;;;;;;;;5076001;28;20356;-19
2023/07/09 05:39:23;;;;;;;2.13;2.03;;;;;;;;;;5075901;28;20039;-20
2023/07/09 05:41:49;;;;;;;2.22;2.13;;;;;;;;;;5075847;28;20020;-20
2023/07/09 05:44:15;;;;;;;1.80;1.70;;;;;;;;;;5075914;28;20021;-25
2023/07/09 05:46:42;;;;;;;2.15;2.05;;;;;;;;;;5075851;28;20024;-20
2023/07/09 05:49:08;;;;;;;1.73;1.63;;;;;;;;;;5075824;28;20032;-24
2023/07/09 05:51:34;;;;;;;2.13;2.03;;;;;;;;;;5076019;28;20024;-28
2023/07/09 05:54:00;;;;;;;2.05;1.95;;;;;;;;;;5058261;28;20363;-19
2023/07/09 05:56:26;;;;;;;1.90;1.80;;;;;;;;;;5075610;28;20021;-20
2023/07/09 05:58:52;;;;;;;1.90;1.80;;;;;;;;;;5075918;28;20020;-20
2023/07/09 06:01:20;;;;;;;2.10;2.00;;;;;;;;;;5075407;28;20115;-19
2023/07/09 06:03:46;;;;;;;1.90;1.80;;;;;;;;;;5075371;28;20451;-23
2023/07/09 06:06:12;;;;;;;1.75;1.65;;;;;;;;;;5075259;28;20448;-20
2023/07/09 06:08:39;;;;;;;1.90;1.80;;;;;;;;;;5075630;28;20024;-19
2023/07/09 06:11:05;;;;;;;2.00;1.90;;;;;;;;;;5075626;28;20032;-21
2023/07/09 06:13:32;;;;;;;2.65;2.45;;;;;;;;;;5075526;28;20380;-21
2023/07/09 06:15:59;;;;;;;2.25;2.15;;;;;;;;;;5075545;28;20091;-19
2023/07/09 06:18:29;;;;;;;1.92;1.83;;;;;;;;;;5075215;28;20047;-21
2023/07/09 06:20:56;;;;;;;1.92;1.83;;;;;;;;;;5075152;28;20021;-20
2023/07/09 06:23:22;;;;;;;1.80;1.70;;;;;;;;;;5075077;28;20031;-24
2023/07/09 06:25:48;;;;;;;1.80;1.70;;;;;;;;;;5075398;28;20090;-20
2023/07/09 06:28:15;;;;;;;1.77;1.67;;;;;;;;;;5075023;28;20150;-22
2023/07/09 06:30:42;;;;;;;2.33;2.22;;;;;;;;;;5075228;28;20029;-18
2023/07/09 06:33:08;;;;;;;1.80;1.70;;;;;;;;;;5075187;28;20032;-21
2023/07/09 06:35:34;;;;;;;2.38;2.17;;;;;;;;;;5075490;28;20055;-22
2023/07/09 06:38:00;;;;;;;2.40;2.20;;;;;;;;;;5074879;28;20028;-20
2023/07/09 06:40:26;;;;;;;2.28;2.17;;;;;;;;;;5074867;28;20329;-19
2023/07/09 06:42:52;;;;;;;2.20;2.05;;;;;;;;;;5074774;28;20025;-21
2023/07/09 06:45:18;;;;;;;1.92;1.83;;;;;;;;;;5075373;28;20100;-23
2023/07/09 06:47:44;;;;;;;2.00;1.90;;;;;;;;;;5074613;28;20025;-22
2023/07/09 06:50:12;;;;;;;1.73;1.63;;;;;;;;;;5074667;28;20471;-22
2023/07/09 06:52:38;;;;;;;2.00;1.90;;;;;;;;;;5074671;28;20363;-21
2023/07/09 06:55:04;;;;;;;1.92;1.83;;;;;;;;;;5075012;28;20384;-20
2023/07/09 06:57:30;;;;;;;2.03;1.92;;;;;;;;;;5075456;28;20107;-19
2023/07/09 06:59:56;;;;;;;1.80;1.70;;;;;;;;;;5074600;28;20099;-19
2023/07/09 07:02:23;;;;;;;2.55;2.38;;;;;;;;;;5074821;28;20021;-20
2023/07/09 07:04:49;;;;;;;2.30;2.20;;;;;;;;;;5074581;28;20048;-22
2023/07/09 07:07:15;;;;;;;2.47;2.20;;;;;;;;;;5074488;28;20592;-22
2023/07/09 07:09:41;;;;;;;1.63;1.52;;;;;;;;;;5074835;28;20035;-20
2023/07/09 07:12:07;;;;;;;2.25;2.05;;;;;;;;;;5074768;28;20037;-20
2023/07/09 07:14:33;;;;;;;2.38;2.28;;;;;;;;;;5074518;28;20104;-21
2023/07/09 07:16:59;;;;;;;2.05;1.95;;;;;;;;;;5074775;28;20024;-19
2023/07/09 07:19:27;;;;;;;2.25;2.15;;;;;;;;;;5056777;28;20069;-20
2023/07/09 07:21:53;;;;;;;2.00;1.90;;;;;;;;;;5074593;28;20021;-24
2023/07/09 07:24:19;;;;;;;2.50;2.30;;;;;;;;;;5074331;28;20027;-23
2023/07/09 07:26:45;;;;;;;1.70;1.60;;;;;;;;;;5074605;28;20024;-18
2023/07/09 07:29:12;;;;;;;2.08;1.98;;;;;;;;;;5074371;28;20025;-19
2023/07/09 07:31:38;;;;;;;2.22;2.13;;;;;;;;;;5074279;28;20039;-22
2023/07/09 07:34:04;;;;;;;2.30;2.20;;;;;;;;;;5074526;28;20339;-22
2023/07/09 07:36:30;;;;;;;1.88;1.77;;;;;;;;;;5074616;28;20035;-19
2023/07/09 07:38:56;;;;;;;3.20;3.00;;;;;;;;;;5074300;28;20054;-22
2023/07/09 07:41:22;;;;;;;2.90;2.70;;;;;;;;;;5074204;28;20028;-22
2023/07/09 07:43:48;;;;;;;4.80;2.72;;;;;;;;;;5074150;28;20023;-20
2023/07/09 07:46:14;;;;;;;3.08;2.88;;;;;;;;;;5074240;28;20024;-20
2023/07/09 07:48:40;;;;;;;2.60;2.40;;;;;;;;;;5074221;28;20021;-17
2023/07/09 07:51:07;;;;;;;2.92;2.72;;;;;;;;;;5074442;28;20032;-18
2023/07/09 07:53:33;;;;;;;3.00;2.83;;;;;;;;;;5074096;28;20109;-20
2023/07/09 07:56:02;;;;;;;3.28;3.08;;;;;;;;;;5074124;28;20531;-19
2023/07/09 07:58:28;;;;;;;3.20;3.00;;;;;;;;;;5074065;28;20543;-20
2023/07/09 08:00:56;;;;;;;3.97;3.67;;;;;;;;;;5077335;28;20108;-21
2023/07/09 08:03:23;;;;;;;3.20;3.00;;;;;;;;;;5077759;28;20017;-19
2023/07/09 08:05:50;;;;;;;3.05;2.85;;;;;;;;;;5077591;28;20456;-20
2023/07/09 08:08:17;;;;;;;3.25;3.05;;;;;;;;;;5077729;28;20040;-19
2023/07/09 08:10:43;;;;;;;3.47;3.28;;;;;;;;;;5077943;28;20035;-20
2023/07/09 08:13:09;;;;;;;3.78;3.58;;;;;;;;;;5077838;28;20028;-21
2023/07/09 08:15:35;;;;;;;3.13;2.97;;;;;;;;;;5077610;28;20024;-22
2023/07/09 08:18:02;;;;;;;3.30;3.10;;;;;;;;;;5077589;28;20024;-22
2023/07/09 08:20:28;;;;;;;3.30;3.10;;;;;;;;;;5077433;28;20032;-17
2023/07/09 08:22:54;;;;;;;3.17;2.97;;;;;;;;;;5077716;28;20032;-21
2023/07/09 08:25:20;;;;;;;3.20;3.00;;;;;;;;;;5077738;28;20020;-23
2023/07/09 08:27:46;;;;;;;2.95;2.75;;;;;;;;;;5077371;28;20051;-21
2023/07/09 08:30:12;;;;;;;2.92;2.75;;;;;;;;;;5078036;28;20082;-23
2023/07/09 08:32:38;;;;;;;2.50;2.30;;;;;;;;;;5077238;28;20020;-21
2023/07/09 08:35:05;;;;;;;3.15;2.95;;;;;;;;;;5077287;28;20024;-18
2023/07/09 08:37:31;;;;;;;3.30;3.10;;;;;;;;;;5077220;28;20028;-21
2023/07/09 08:39:57;;;;;;;3.58;3.38;;;;;;;;;;5077060;28;20355;-20
2023/07/09 08:42:30;;;;;;;4.07;3.88;;;;;;;;;;5077357;28;20388;-23
2023/07/09 08:45:15;;;;;;;3.42;3.22;;;;;;;;;;5077395;28;20016;-18
2023/07/09 08:47:48;;;;;;;3.22;3.03;;;;;;;;;;5077017;28;20024;-20
2023/07/09 08:50:19;;;;;;;3.53;3.33;;;;;;;;;;5077304;28;20355;-19
2023/07/09 08:52:48;;;;;;;3.30;3.10;;;;;;;;;;5077193;28;20059;-17
2023/07/09 08:55:22;;;;;;;3.50;3.30;;;;;;;;;;5076895;28;20032;-18
2023/07/09 08:57:50;;;;;;;3.63;3.42;;;;;;;;;;5077146;28;20028;-20
2023/07/09 09:00:27;;;;;;;4.50;3.88;;;;;;;;;;5076725;28;20028;-20
2023/07/09 09:03:01;;;;;;;4.00;3.70;;;;;;;;;;5077042;28;20442;-19
2023/07/09 09:05:27;;;;;;;3.80;3.60;;;;;;;;;;5076704;28;20135;-21
2023/07/09 09:08:26;;;;;;;3.67;3.47;;;;;;;;;;5076977;28;20025;-19
2023/07/09 09:10:56;;;;;;;3.60;3.40;;;;;;;;;;5043210;28;20359;-20
2023/07/09 09:13:24;;;;;;;3.42;3.22;;;;;;;;;;5076542;28;20027;-20
2023/07/09 09:15:51;;;;;;;3.42;3.22;;;;;;;;;;5076845;28;20034;-20
2023/07/09 09:18:20;;;;;;;3.42;3.22;;;;;;;;;;5077167;28;20020;-20
2023/07/09 09:21:04;;;;;;;3.83;3.60;;;;;;;;;;5076617;28;20182;-22
2023/07/09 09:23:40;;;;;;;3.10;2.90;;;;;;;;;;5076548;28;20123;-21
2023/07/09 09:26:10;;;;;;;3.47;3.28;;;;;;;;;;5076561;28;20039;-19
2023/07/09 09:28:36;;;;;;;3.25;3.05;;;;;;;;;;5076305;28;20102;-19
2023/07/09 09:31:02;;;;;;;3.35;3.15;;;;;;;;;;5076220;28;20025;-19
2023/07/09 09:33:37;;;;;;;3.60;3.40;;;;;;;;;;5058394;28;20443;-20
2023/07/09 09:36:06;;;;;;;2.83;2.65;;;;;;;;;;5076178;28;20367;-20
2023/07/09 09:38:36;;;;;;;3.50;3.30;;;;;;;;;;5076038;28;20078;-21
2023/07/09 09:41:02;;;;;;;3.90;3.67;;;;;;;;;;5076260;28;20355;-20
2023/07/09 09:43:33;;;;;;;3.78;3.58;;;;;;;;;;5075918;28;20440;-22
2023/07/09 09:46:02;;;;;;;3.45;3.25;;;;;;;;;;5075959;28;20029;-20
2023/07/09 09:48:30;;;;;;;3.33;3.13;;;;;;;;;;5076134;28;20024;-20
2023/07/09 09:51:00;;;;;;;3.85;3.65;;;;;;;;;;5075777;28;20036;-20
2023/07/09 09:53:27;;;;;;;3.17;2.97;;;;;;;;;;5075982;28;20017;-19
2023/07/09 09:55:54;;;;;;;3.42;3.22;;;;;;;;;;5075629;28;20039;-21
2023/07/09 09:58:20;;;;;;;3.50;3.30;;;;;;;;;;5075958;28;20329;-19
2023/07/09 10:00:53;;;;;;;4.05;3.85;;;;;;;;;;5075566;28;20446;-22
2023/07/09 10:03:19;;;;;;;4.18;3.97;;;;;;;;;;5075485;28;20474;-20
2023/07/09 10:05:52;;;;;;;3.55;3.35;;;;;;;;;;5075339;28;20379;-22
2023/07/09 10:08:36;;;;;;;3.22;3.03;;;;;;;;;;5075734;28;20411;-20
2023/07/09 10:11:09;;;;;;;3.80;3.60;;;;;;;;;;5075362;28;20029;-26
2023/07/09 10:13:38;;;;;;;3.78;3.58;;;;;;;;;;5075417;28;20078;-18
2023/07/09 10:16:07;;;;;;;3.63;3.42;;;;;;;;;;5075605;28;20028;-24
2023/07/09 10:18:39;;;;;;;4.32;4.03;;;;;;;;;;5075248;28;20024;-18
2023/07/09 10:21:14;;;;;;;3.42;3.22;;;;;;;;;;5075419;28;20043;-21
2023/07/09 10:23:59;;;;;;;4.32;4.03;;;;;;;;;;5074150;28;20444;-22
2023/07/09 10:26:33;;;;;;;3.95;3.72;;;;;;;;;;5075091;28;20119;-20
2023/07/09 10:29:05;;;;;;;3.97;3.75;;;;;;;;;;5075694;28;20082;-20
2023/07/09 10:31:31;;;;;;;3.95;3.75;;;;;;;;;;5075308;28;20086;-23
2023/07/09 10:34:13;;;;;;;4.65;4.35;;;;;;;;;;5074901;28;20454;-20
2023/07/09 10:36:48;;;;;;;4.78;4.47;;;;;;;;;;5074931;28;20025;-20
2023/07/09 10:39:20;;;;;;;4.40;4.10;;;;;;;;;;5074884;28;20058;-21
2023/07/09 10:41:47;;;;;;;4.20;3.97;;;;;;;;;;5075413;28;20025;-19
2023/07/09 10:44:19;;;;;;;4.38;4.18;;;;;;;;;;5075122;28;20351;-19
2023/07/09 10:46:47;;;;;;;4.78;4.47;;;;;;;;;;5075330;28;20030;-21
2023/07/09 10:49:15;;;;;;;4.63;4.32;;;;;;;;;;5074820;28;20028;-22
2023/07/09 10:51:49;;;;;;;3.95;3.75;;;;;;;;;;5074666;28;20020;-20
2023/07/09 10:54:24;;;;;;;4.65;4.35;;;;;;;;;;5074724;28;20079;-20
2023/07/09 10:56:54;;;;;;;4.32;4.03;;;;;;;;;;5074985;28;20028;-18
2023/07/09 10:59:29;;;;;;;4.72;4.43;;;;;;;;;;5074549;28;20119;-19
2023/07/09 11:02:16;;;;;;;4.68;4.40;;;;;;;;;;5074528;28;20434;-20
2023/07/09 11:04:48;;;;;;;4.78;4.47;;;;;;;;;;5074807;28;20108;-21
2023/07/09 11:07:17;;;;;;;4.15;3.95;;;;;;;;;;5074486;28;20036;-19
2023/07/09 11:09:45;;;;;;;4.32;4.13;;;;;;;;;;5074775;28;20109;-21
2023/07/09 11:12:18;;;;;;;4.03;3.83;;;;;;;;;;5074723;28;20095;-18
2023/07/09 11:14:56;;;;;;;4.13;3.90;;;;;;;;;;5074488;28;20034;-22
2023/07/09 11:17:23;;;;;;;4.05;3.85;;;;;;;;;;5075018;28;20032;-23
2023/07/09 11:19:54;;;;;;;3.95;3.75;;;;;;;;;;5074644;28;20423;-21
2023/07/09 11:22:20;;;;;;;;;;;;;;;;;;5075051;28;20094;-18
2023/07/09 11:24:51;;;;;;;4.78;3.67;;;;;;;;;;5074451;28;19909;-21
2023/07/09 11:27:18;;;;;;;4.35;4.15;;;;;;;;;;5074722;28;20036;-22
2023/07/09 11:29:48;;;;;;;3.65;3.45;;;;;;;;;;5074374;28;20409;-21
2023/07/09 11:32:22;;;;;;;4.03;3.80;;;;;;;;;;5074309;28;20028;-20
2023/07/09 11:34:49;;;;;;;4.30;4.00;;;;;;;;;;5076099;28;20032;-19
2023/07/09 11:37:16;;;;;;;4.10;3.90;;;;;;;;;;5078531;28;20451;-22
2023/07/09 11:39:44;;;;;;;4.32;4.05;;;;;;;;;;5078294;28;20064;-23
2023/07/09 11:42:25;;;;;;;3.78;3.58;;;;;;;;;;5078415;28;20032;-20
2023/07/09 11:44:54;;;;;;;4.88;4.57;;;;;;;;;;5078184;28;20021;-19
2023/07/09 11:47:22;;;;;;;4.53;4.32;;;;;;;;;;5078178;28;20021;-21
2023/07/09 11:50:01;;;;;;;3.83;3.63;;;;;;;;;;5078391;28;20514;-22
2023/07/09 11:52:28;;;;;;;4.25;4.05;;;;;;;;;;5060422;28;20110;-18
2023/07/09 11:54:54;;;;;;;4.72;4.43;;;;;;;;;;5078071;28;20078;-22
2023/07/09 11:57:20;;;;;;;4.10;3.90;;;;;;;;;;5077884;28;20459;-20
2023/07/09 11:59:46;;;;;;;4.88;4.47;;;;;;;;;;5078055;28;20042;-19
2023/07/09 12:02:22;;;;;;;4.57;4.28;;;;;;;;;;5078033;28;20036;-22
2023/07/09 12:04:49;;;;;;;4.57;4.28;;;;;;;;;;5078387;28;20088;-21
2023/07/09 12:07:16;;;;;;;4.60;4.30;;;;;;;;;;5077625;28;20432;-21
2023/07/09 12:09:49;;;;;;;5.00;4.68;;;;;;;;;;5077762;28;20351;-21
2023/07/09 12:12:19;;;;;;;4.95;4.65;;;;;;;;;;5078275;28;20100;-18
2023/07/09 12:14:46;;;;;;;4.55;4.25;;;;;;;;;;5077570;28;20028;-18
2023/07/09 12:17:12;;;;;;;5.03;4.72;;;;;;;;;;5077613;28;20055;-22
2023/07/09 12:19:39;;;;;;;4.80;4.50;;;;;;;;;;5077445;28;20086;-20
2023/07/09 12:22:07;;;;;;;4.50;4.20;;;;;;;;;;5060088;28;20028;-21
2023/07/09 12:24:37;;;;;;;4.75;4.40;;;;;;;;;;5077507;28;20016;-20
2023/07/09 12:27:16;;;;;;;4.72;4.43;;;;;;;;;;5077694;28;20081;-21
2023/07/09 12:29:42;;;;;;;4.13;3.83;;;;;;;;;;5077692;28;20024;-20
2023/07/09 12:32:16;;;;;;;4.65;4.43;;;;;;;;;;5077304;28;20071;-20
2023/07/09 12:34:42;;;;;;;4.93;4.63;;;;;;;;;;5077595;28;20028;-26
2023/07/09 12:37:13;;;;;;;4.55;4.25;;;;;;;;;;5077794;28;20029;-21
2023/07/09 12:39:39;;;;;;;4.07;3.88;;;;;;;;;;5077407;28;20025;-19
2023/07/09 12:42:06;;;;;;;4.35;4.15;;;;;;;;;;5077089;28;20039;-22
2023/07/09 12:44:35;;;;;;;4.18;3.92;;;;;;;;;;5077084;28;20036;-20
2023/07/09 12:47:02;;;;;;;4.60;4.40;;;;;;;;;;5076322;28;20062;-22
2023/07/09 12:49:29;;;;;;;4.30;4.03;;;;;;;;;;5077022;28;20036;-19
2023/07/09 12:51:56;;;;;;;4.22;3.92;;;;;;;;;;5077208;28;20024;-23
2023/07/09 12:54:23;;;;;;;4.95;4.65;;;;;;;;;;5076973;28;20048;-21
2023/07/09 12:56:55;;;;;;;4.93;4.63;;;;;;;;;;5077444;28;20083;-20
2023/07/09 12:59:29;;;;;;;4.32;4.03;;;;;;;;;;5076803;28;20028;-20
2023/07/09 13:01:56;;;;;;;4.10;3.80;;;;;;;;;;5076702;28;20028;-25
2023/07/09 13:04:28;;;;;;;3.92;3.72;;;;;;;;;;5077018;28;20020;-21
2023/07/09 13:06:59;;;;;;;4.68;4.38;;;;;;;;;;5076661;28;20041;-20
2023/07/09 13:09:25;;;;;;;4.50;4.20;;;;;;;;;;5076676;28;20100;-20
2023/07/09 13:11:52;;;;;;;5.38;5.07;;;;;;;;;;5076549;28;20103;-19
2023/07/09 13:14:19;;;;;;;4.20;4.00;;;;;;;;;;5076809;28;20027;-20
2023/07/09 13:16:46;;;;;;;5.13;4.82;;;;;;;;;;5076570;28;20024;-19
2023/07/09 13:19:12;;;;;;;4.90;4.60;;;;;;;;;;5076516;28;20025;-21
2023/07/09 13:21:39;;;;;;;5.22;4.82;;;;;;;;;;5076526;28;20025;-20
2023/07/09 13:24:12;;;;;;;3.95;3.75;;;;;;;;;;5076568;28;20025;-19
2023/07/09 13:26:38;;;;;;;4.30;4.05;;;;;;;;;;5076325;28;20039;-20
2023/07/09 13:29:11;;;;;;;4.75;4.45;;;;;;;;;;5076303;28;20482;-21
2023/07/09 13:31:37;;;;;;;5.15;4.82;;;;;;;;;;5076467;28;20056;-20
2023/07/09 13:34:09;;;;;;;5.40;5.10;;;;;;;;;;5076913;28;20099;-19
2023/07/09 13:36:35;;;;;;;4.60;4.32;;;;;;;;;;5076344;28;20107;-20
2023/07/09 13:39:01;;;;;;;4.70;4.40;;;;;;;;;;5076297;28;20106;-20
2023/07/09 13:41:27;;;;;;;5.00;4.70;;;;;;;;;;5075856;28;20080;-23
2023/07/09 13:43:53;;;;;;;4.95;4.65;;;;;;;;;;5075936;28;20048;-20
2023/07/09 13:46:19;;;;;;;4.38;4.07;;;;;;;;;;5076206;28;20485;-19
2023/07/09 13:48:46;;;;;;;4.43;4.13;;;;;;;;;;5076170;28;20039;-20
2023/07/09 13:51:18;;;;;;;4.68;4.45;;;;;;;;;;5075819;28;20028;-22
2023/07/09 13:53:44;;;;;;;5.43;5.13;;;;;;;;;;5075678;28;20402;-21
2023/07/09 13:56:10;;;;;;;5.53;5.22;;;;;;;;;;5075685;28;20028;-20
2023/07/09 13:58:36;;;;;;;4.85;4.40;;;;;;;;;;5075481;28;20111;-20
2023/07/09 14:01:14;;;;;;;4.80;4.55;;;;;;;;;;5075440;28;20090;-19
2023/07/09 14:03:40;;;;;;;4.53;4.32;;;;;;;;;;5075794;28;20031;-22
2023/07/09 14:06:09;;;;;;;4.05;3.78;;;;;;;;;;5075464;28;20101;-21
2023/07/09 14:08:35;;;;;;;5.22;4.82;;;;;;;;;;5075447;28;20028;-20
2023/07/09 14:11:01;;;;;;;4.18;2.97;;;;;;;;;;5075454;28;20067;-21
2023/07/09 14:13:28;;;;;;;12.05;4.32;;;;;;;;;;5075333;28;20103;-22
2023/07/09 14:15:54;;;;;;;4.30;3.17;;;;;;;;;;5075395;28;20050;-20
2023/07/09 14:18:22;;;;;;;7.25;3.67;;;;;;;;;;5075997;28;20032;-20
2023/07/09 14:20:50;;;;;;;4.80;3.67;;;;;;;;;;5075103;28;20036;-18
2023/07/09 14:23:17;;;;;;;8.25;4.10;;;;;;;;;;5075250;28;20025;-23
2023/07/09 14:25:44;;;;;;;5.68;5.28;;;;;;;;;;5075151;28;20076;-21
2023/07/09 14:28:15;;;;;;;4.10;3.80;;;;;;;;;;5075079;28;20020;-20
2023/07/09 14:30:43;;;;;;;3.50;3.30;;;;;;;;;;5075328;28;20445;-21
2023/07/09 14:33:16;;;;;;;4.47;4.07;;;;;;;;;;5075163;28;20445;-19
2023/07/09 14:35:43;;;;;;;4.93;4.63;;;;;;;;;;5075269;28;20020;-19
2023/07/09 14:38:29;;;;;;;5.00;4.72;;;;;;;;;;5074972;28;20028;-22
2023/07/09 14:40:56;;;;;;;5.10;4.80;;;;;;;;;;5075206;28;20078;-23
2023/07/09 14:43:23;;;;;;;5.47;5.18;;;;;;;;;;5074849;28;20404;-20
2023/07/09 14:45:49;;;;;;;6.05;5.72;;;;;;;;;;5074909;28;20409;-22
2023/07/09 14:48:17;;;;;;;5.57;5.28;;;;;;;;;;5075108;28;20104;-20